KPWA/PWA METAR and TAF weather

Enter ICAO airport designator
Station Type Date Time Source
KPWA METAR 2020/06/03 14:53 UTC NOAA

KPWA 031453Z 20013KT 10SM CLR 28/21 A2996 RMK AO2 SLP126 T02780206 58004


Station Type Date Time Source
KPWA Decoded METAR 2020/06/03 14:53 UTC NOAA

WILEY POST, OK, United States (KPWA) 35-32N 97-39W 397M
Jun 03, 2020 - 10:53 AM EDT / 2020.06.03 1453 UTC
Wind: from the SSW (200 degrees) at 15 MPH (13 KT):0
Visibility: 10 mile(s):0
Sky conditions: clear
Temperature: 82.0 F (27.8 C)
Dew Point: 69.1 F (20.6 C)
Relative Humidity: 64%
Pressure (altimeter): 29.96 in. Hg (1014 hPa)
Pressure tendency: 0.01 inches (0.4 hPa) lower than three hours ago
ob: KPWA 031453Z 20013KT 10SM CLR 28/21 A2996 RMK AO2 SLP126 T02780206 58004
cycle: 15

Station Type Date Time Source
KPWA TAF UTC NOAA

Error!

Example: see airport list